Time,TemperatureF,DewpointF,PressureIn,WindDirection,WindDirectionDegrees,WindSpeedMPH,WindSpeedGustMPH,Humidity,HourlyPrecipIn,Conditions,Clouds,dailyrainin,SoftwareType,DateUTC
2013-12-12 00:00:00,3.5,-0.5,30.25,SE,143,6.0,8.0,83,0.00,OVC,,0.00,WeatherDisplay:10.37,2013-12-12 06:00:00,
2013-12-12 00:05:00,3.6,-0.4,30.25,SE,137,5.0,9.0,83,0.00,OVC,,0.00,WeatherDisplay:10.37,2013-12-12 06:05:00,
2013-12-12 00:10:00,3.9,-0.1,30.25,SE,131,0.0,0.0,83,0.00,OVC,,0.00,WeatherDisplay:10.37,2013-12-12 06:10:00,
2013-12-12 00:15:00,4.0,0.0,30.25,ESE,119,1.0,8.0,83,0.00,OVC,,0.00,WeatherDisplay:10.37,2013-12-12 06:15:00,
2013-12-12 00:20:00,4.0,0.0,30.25,ESE,119,2.0,6.0,83,0.00,OVC,,0.00,WeatherDisplay:10.37,2013-12-12 06:20:00,
2013-12-12 00:25:00,4.2,0.2,30.25,SE,124,0.0,6.0,83,0.00,OVC,,0.00,WeatherDisplay:10.37,2013-12-12 06:25:00,
2013-12-12 00:30:00,4.3,0.3,30.25,SE,128,0.0,0.0,83,0.00,OVC,,0.00,WeatherDisplay:10.37,2013-12-12 06:30:00,
2013-12-12 00:35:00,4.6,0.6,30.25,SE,137,6.0,8.0,83,0.00,OVC,,0.00,WeatherDisplay:10.37,2013-12-12 06:35:00,
2013-12-12 00:40:00,4.9,0.8,30.24,SE,131,2.0,7.0,83,0.00,OVC,,0.00,WeatherDisplay:10.37,2013-12-12 06:40:00,
2013-12-12 00:45:00,5.1,1.0,30.23,SE,129,5.0,7.0,83,0.00,OVC,,0.00,WeatherDisplay:10.37,2013-12-12 06:45:00,
2013-12-12 00:50:00,5.3,1.5,30.23,SE,139,5.0,11.0,84,0.00,OVC,,0.00,WeatherDisplay:10.37,2013-12-12 06:50:00,
2013-12-12 00:55:00,5.5,1.8,30.24,SSE,150,1.0,8.0,84,0.00,OVC,,0.00,WeatherDisplay:10.37,2013-12-12 06:55:00,
2013-12-12 01:00:00,5.8,2.0,30.24,South,173,3.0,8.0,84,0.00,OVC,,0.00,WeatherDisplay:10.37,2013-12-12 07:00:00,
2013-12-12 01:05:00,5.9,2.1,30.23,South,188,5.0,7.0,84,0.00,OVC,,0.00,WeatherDisplay:10.37,2013-12-12 07:05:00,
2013-12-12 01:10:00,6.1,2.3,30.23,South,189,0.0,7.0,84,0.00,OVC,,0.00,WeatherDisplay:10.37,2013-12-12 07:10:00,
2013-12-12 01:15:00,6.2,2.2,30.23,SSW,207,2.0,6.0,83,0.00,OVC,,0.00,WeatherDisplay:10.37,2013-12-12 07:15:00,
2013-12-12 01:20:00,6.3,2.5,30.22,South,186,3.0,7.0,84,0.00,OVC,,0.00,WeatherDisplay:10.37,2013-12-12 07:20:00,
2013-12-12 01:25:00,6.4,2.6,30.22,SSE,154,2.0,7.0,84,0.00,OVC,,0.00,WeatherDisplay:10.37,2013-12-12 07:25:00,
2013-12-12 01:30:00,6.6,2.7,30.22,SE,140,0.0,0.0,84,0.00,OVC,,0.00,WeatherDisplay:10.37,2013-12-12 07:30:00,
2013-12-12 01:35:00,6.7,2.8,30.21,South,171,1.0,7.0,84,0.00,OVC,,0.00,WeatherDisplay:10.37,2013-12-12 07:35:00,
2013-12-12 01:40:00,6.8,3.0,30.20,South,178,6.0,8.0,84,0.00,OVC,,0.00,WeatherDisplay:10.37,2013-12-12 07:40:00,
2013-12-12 01:45:00,6.9,3.1,30.20,SSE,163,3.0,8.0,84,0.00,OVC,,0.00,WeatherDisplay:10.37,2013-12-12 07:45:00,
2013-12-12 01:50:00,7.0,3.2,30.20,SSE,148,5.0,10.0,84,0.00,OVC,,0.00,WeatherDisplay:10.37,2013-12-12 07:50:00,
2013-12-12 01:55:00,7.2,3.4,30.20,SSE,156,6.0,8.0,84,0.00,OVC,,0.00,WeatherDisplay:10.37,2013-12-12 07:55:00,
2013-12-12 02:00:00,7.3,3.5,30.20,SSE,166,1.0,8.0,84,0.00,OVC,,0.00,WeatherDisplay:10.37,2013-12-12 08:00:00,
2013-12-12 02:05:00,7.4,3.6,30.19,South,170,5.0,9.0,84,0.00,OVC,,0.00,WeatherDisplay:10.37,2013-12-12 08:05:00,
2013-12-12 02:10:00,7.5,3.7,30.19,South,170,6.0,12.0,84,0.00,OVC,,0.00,WeatherDisplay:10.37,2013-12-12 08:10:00,
2013-12-12 02:15:00,7.7,3.9,30.19,South,171,6.0,9.0,84,0.00,OVC,,0.00,WeatherDisplay:10.37,2013-12-12 08:15:00,
2013-12-12 02:20:00,7.9,4.1,30.19,South,188,6.0,12.0,84,0.00,OVC,,0.00,WeatherDisplay:10.37,2013-12-12 08:20:00,
2013-12-12 02:25:00,8.1,4.2,30.19,South,190,6.0,10.0,84,0.00,OVC,,0.00,WeatherDisplay:10.37,2013-12-12 08:25:00,
2013-12-12 02:30:00,8.2,4.3,30.20,SSW,196,7.0,10.0,84,0.00,OVC,,0.00,WeatherDisplay:10.37,2013-12-12 08:30:00,
2013-12-12 02:35:00,8.3,4.4,30.19,South,175,2.0,9.0,84,0.00,OVC,,0.00,WeatherDisplay:10.37,2013-12-12 08:35:00,
2013-12-12 02:40:00,8.3,4.5,30.19,South,177,5.0,7.0,84,0.00,OVC,,0.00,WeatherDisplay:10.37,2013-12-12 08:40:00,
2013-12-12 02:45:00,8.7,5.1,30.19,SSW,198,3.0,7.0,85,0.00,OVC,,0.00,WeatherDisplay:10.37,2013-12-12 08:45:00,
2013-12-12 02:50:00,8.6,5.1,30.19,SSW,194,5.0,10.0,85,0.00,OVC,,0.00,WeatherDisplay:10.37,2013-12-12 08:50:00,
2013-12-12 02:55:00,8.6,5.0,30.19,South,188,6.0,9.0,85,0.00,OVC,,0.00,WeatherDisplay:10.37,2013-12-12 08:55:00,
2013-12-12 03:00:00,8.6,4.8,30.19,South,173,0.0,6.0,84,0.00,OVC,,0.00,WeatherDisplay:10.37,2013-12-12 09:00:00,
2013-12-12 03:05:00,8.7,4.8,30.19,SSE,167,5.0,9.0,84,0.00,OVC,,0.00,WeatherDisplay:10.37,2013-12-12 09:05:00,
2013-12-12 03:10:00,8.6,4.7,30.19,South,175,3.0,7.0,84,0.00,OVC,,0.00,WeatherDisplay:10.37,2013-12-12 09:10:00,
2013-12-12 03:15:00,8.6,4.7,30.19,SSW,192,6.0,7.0,84,0.00,FEW,,0.00,WeatherDisplay:10.37,2013-12-12 09:15:00,
2013-12-12 03:20:00,8.4,4.6,30.19,SSW,192,6.0,8.0,84,0.00,FEW,,0.00,WeatherDisplay:10.37,2013-12-12 09:20:00,
2013-12-12 03:25:00,8.5,4.9,30.19,SSW,205,3.0,7.0,85,0.00,FEW,,0.00,WeatherDisplay:10.37,2013-12-12 09:25:00,
2013-12-12 03:35:00,8.3,4.7,30.19,SSW,201,0.0,3.0,85,0.00,FEW,,0.00,WeatherDisplay:10.37,2013-12-12 09:35:00,
2013-12-12 03:40:00,8.2,4.6,30.19,SSW,193,0.0,0.0,85,0.00,FEW,,0.00,WeatherDisplay:10.37,2013-12-12 09:40:00,
2013-12-12 03:45:00,8.0,4.5,30.19,SSW,193,0.0,6.0,85,0.00,FEW,,0.00,WeatherDisplay:10.37,2013-12-12 09:45:00,
2013-12-12 03:50:00,7.9,4.4,30.19,South,189,2.0,6.0,85,0.00,FEW,,0.00,WeatherDisplay:10.37,2013-12-12 09:50:00,
2013-12-12 03:55:00,7.8,4.3,30.19,SSW,194,3.0,7.0,85,0.00,FEW,,0.00,WeatherDisplay:10.37,2013-12-12 09:55:00,
2013-12-12 04:05:00,7.8,4.2,30.19,SSW,193,0.0,0.0,85,0.00,FEW,,0.00,WeatherDisplay:10.37,2013-12-12 10:05:00,
2013-12-12 04:10:00,7.6,4.1,30.19,South,181,3.0,6.0,85,0.00,FEW,,0.00,WeatherDisplay:10.37,2013-12-12 10:10:00,
2013-12-12 04:15:00,7.5,4.0,30.19,South,172,5.0,6.0,85,0.00,CLR,,0.00,WeatherDisplay:10.37,2013-12-12 10:15:00,
2013-12-12 04:20:00,7.5,3.9,30.19,South,173,1.0,6.0,85,0.00,CLR,,0.00,WeatherDisplay:10.37,2013-12-12 10:20:00,
2013-12-12 04:25:00,7.5,4.2,30.18,South,184,0.0,6.0,86,0.00,CLR,,0.00,WeatherDisplay:10.37,2013-12-12 10:25:00,
2013-12-12 04:30:00,7.5,4.2,30.18,SSW,192,0.0,0.0,86,0.00,CLR,,0.00,WeatherDisplay:10.37,2013-12-12 10:30:00,
2013-12-12 04:35:00,7.4,4.1,30.18,SSW,195,1.0,7.0,86,0.00,CLR,,0.00,WeatherDisplay:10.37,2013-12-12 10:35:00,
2013-12-12 04:40:00,7.4,4.1,30.18,South,183,2.0,6.0,86,0.00,CLR,,0.00,WeatherDisplay:10.37,2013-12-12 10:40:00,
2013-12-12 04:45:00,7.4,4.0,30.18,South,184,1.0,7.0,86,0.00,CLR,,0.00,WeatherDisplay:10.37,2013-12-12 10:45:00,
2013-12-12 04:50:00,7.4,4.1,30.18,South,190,3.0,5.0,86,0.00,CLR,,0.00,WeatherDisplay:10.37,2013-12-12 10:50:00,
2013-12-12 04:55:00,7.5,4.2,30.18,SSW,192,2.0,7.0,86,0.00,CLR,,0.00,WeatherDisplay:10.37,2013-12-12 10:55:00,
2013-12-12 05:00:00,7.5,4.2,30.18,SSW,198,3.0,7.0,86,0.00,CLR,,0.00,WeatherDisplay:10.37,2013-12-12 11:00:00,
2013-12-12 05:05:00,7.6,4.5,30.18,SSW,198,0.0,7.0,87,0.00,CLR,,0.00,WeatherDisplay:10.37,2013-12-12 11:05:00,
2013-12-12 05:10:00,7.7,4.7,30.18,SSW,201,5.0,7.0,87,0.00,CLR,,0.00,WeatherDisplay:10.37,2013-12-12 11:10:00,
2013-12-12 05:15:00,7.9,4.9,30.19,SSW,203,0.0,5.0,87,0.00,CLR,,0.00,WeatherDisplay:10.37,2013-12-12 11:15:00,
2013-12-12 05:20:00,8.1,5.0,30.19,SSW,196,0.0,7.0,87,0.00,CLR,,0.00,WeatherDisplay:10.37,2013-12-12 11:20:00,
2013-12-12 05:25:00,8.1,5.3,30.19,SSW,197,0.0,7.0,88,0.00,CLR,,0.00,WeatherDisplay:10.37,2013-12-12 11:25:00,
2013-12-12 05:30:00,8.2,5.4,30.19,South,190,2.0,6.0,88,0.00,CLR,,0.00,WeatherDisplay:10.37,2013-12-12 11:30:00,
2013-12-12 05:35:00,8.4,5.5,30.19,South,179,0.0,0.0,88,0.00,CLR,,0.00,WeatherDisplay:10.37,2013-12-12 11:35:00,
2013-12-12 05:40:00,8.5,5.7,30.19,SSE,164,0.0,0.0,88,0.00,CLR,,0.00,WeatherDisplay:10.37,2013-12-12 11:40:00,
2013-12-12 05:45:00,8.5,5.7,30.19,SSE,164,0.0,3.0,88,0.00,CLR,,0.00,WeatherDisplay:10.37,2013-12-12 11:45:00,
2013-12-12 05:50:00,8.6,5.8,30.19,South,181,0.0,6.0,88,0.00,CLR,,0.00,WeatherDisplay:10.37,2013-12-12 11:50:00,
2013-12-12 05:55:00,8.8,6.2,30.19,South,187,2.0,6.0,89,0.00,CLR,,0.00,WeatherDisplay:10.37,2013-12-12 11:55:00,
2013-12-12 06:00:00,8.9,6.3,30.19,SSW,192,3.0,6.0,89,0.00,CLR,,0.00,WeatherDisplay:10.37,2013-12-12 12:00:00,
2013-12-12 06:05:00,9.0,6.4,30.19,SSW,199,2.0,7.0,89,0.00,CLR,,0.00,WeatherDisplay:10.37,2013-12-12 12:05:00,
2013-12-12 06:10:00,9.1,6.6,30.19,SSW,196,3.0,7.0,89,0.00,CLR,,0.00,WeatherDisplay:10.37,2013-12-12 12:10:00,
2013-12-12 06:15:00,9.2,6.6,30.19,South,187,1.0,6.0,89,0.00,CLR,,0.00,WeatherDisplay:10.37,2013-12-12 12:15:00,
2013-12-12 06:20:00,9.2,6.7,30.19,South,187,0.0,0.0,89,0.00,CLR,,0.00,WeatherDisplay:10.37,2013-12-12 12:20:00,
2013-12-12 06:30:00,9.4,6.8,30.19,South,191,0.0,0.0,89,0.00,CLR,,0.00,WeatherDisplay:10.37,2013-12-12 12:30:00,
2013-12-12 06:35:00,9.5,6.9,30.19,South,191,0.0,0.0,89,0.00,CLR,,0.00,WeatherDisplay:10.37,2013-12-12 12:35:00,
2013-12-12 06:40:00,9.5,7.2,30.19,South,191,0.0,0.0,90,0.00,CLR,,0.00,WeatherDisplay:10.37,2013-12-12 12:40:00,
2013-12-12 06:45:00,9.6,7.3,30.19,South,191,0.0,0.0,90,0.00,CLR,,0.00,WeatherDisplay:10.37,2013-12-12 12:45:00,
2013-12-12 06:50:00,9.7,7.3,30.20,South,191,0.0,0.0,90,0.00,CLR,,0.00,WeatherDisplay:10.37,2013-12-12 12:50:00,
2013-12-12 06:55:00,9.8,7.4,30.20,South,191,0.0,0.0,90,0.00,CLR,,0.00,WeatherDisplay:10.37,2013-12-12 12:55:00,
2013-12-12 07:00:00,9.8,7.5,30.20,South,191,0.0,0.0,90,0.00,CLR,,0.00,WeatherDisplay:10.37,2013-12-12 13:00:00,
2013-12-12 07:05:00,9.8,7.4,30.20,South,191,0.0,0.0,90,0.00,CLR,,0.00,WeatherDisplay:10.37,2013-12-12 13:05:00,
2013-12-12 07:10:00,9.7,7.3,30.20,South,191,0.0,0.0,90,0.00,CLR,,0.00,WeatherDisplay:10.37,2013-12-12 13:10:00,
2013-12-12 07:15:00,9.6,7.3,30.20,South,191,0.0,0.0,90,0.00,FEW,,0.00,WeatherDisplay:10.37,2013-12-12 13:15:00,
2013-12-12 07:20:00,9.6,7.2,30.20,South,191,0.0,0.0,90,0.00,FEW,,0.00,WeatherDisplay:10.37,2013-12-12 13:20:00,
2013-12-12 07:25:00,9.4,7.1,30.20,South,191,0.0,0.0,90,0.00,FEW,,0.00,WeatherDisplay:10.37,2013-12-12 13:25:00,
2013-12-12 07:30:00,9.3,6.9,30.20,South,191,0.0,0.0,90,0.00,FEW,,0.00,WeatherDisplay:10.37,2013-12-12 13:30:00,
2013-12-12 07:35:00,9.1,6.8,30.20,South,191,0.0,0.0,90,0.00,FEW,,0.00,WeatherDisplay:10.37,2013-12-12 13:35:00,
2013-12-12 07:40:00,9.0,6.7,30.20,South,191,0.0,0.0,90,0.00,FEW,,0.00,WeatherDisplay:10.37,2013-12-12 13:40:00,
2013-12-12 07:45:00,9.0,6.7,30.20,South,191,0.0,0.0,90,0.00,FEW,,0.00,WeatherDisplay:10.37,2013-12-12 13:45:00,
2013-12-12 07:50:00,9.1,6.7,30.20,South,191,0.0,0.0,90,0.00,FEW,,0.00,WeatherDisplay:10.37,2013-12-12 13:50:00,
2013-12-12 07:55:00,9.0,6.7,30.20,South,191,0.0,0.0,90,0.00,FEW,,0.00,WeatherDisplay:10.37,2013-12-12 13:55:00,
2013-12-12 08:00:00,9.1,6.7,30.21,South,191,0.0,0.0,90,0.00,FEW,,0.00,WeatherDisplay:10.37,2013-12-12 14:00:00,
2013-12-12 08:05:00,9.1,6.7,30.21,South,191,0.0,0.0,90,0.00,FEW,,0.00,WeatherDisplay:10.37,2013-12-12 14:05:00,
2013-12-12 08:10:00,9.1,6.8,30.21,South,191,0.0,0.0,90,0.00,FEW,,0.00,WeatherDisplay:10.37,2013-12-12 14:10:00,
2013-12-12 08:15:00,9.1,6.8,30.21,South,191,0.0,0.0,90,0.00,CLR,,0.00,WeatherDisplay:10.37,2013-12-12 14:15:00,
2013-12-12 08:20:00,9.2,6.8,30.21,South,191,0.0,0.0,90,0.00,CLR,,0.00,WeatherDisplay:10.37,2013-12-12 14:20:00,
2013-12-12 08:25:00,9.3,6.9,30.21,South,191,0.0,0.0,90,0.00,CLR,,0.00,WeatherDisplay:10.37,2013-12-12 14:25:00,
2013-12-12 08:30:00,9.4,7.1,30.21,South,191,0.0,0.0,90,0.00,CLR,,0.00,WeatherDisplay:10.37,2013-12-12 14:30:00,
2013-12-12 08:35:00,9.5,7.1,30.22,South,191,0.0,0.0,90,0.00,CLR,,0.00,WeatherDisplay:10.37,2013-12-12 14:35:00,
2013-12-12 08:40:00,9.6,7.2,30.21,South,191,0.0,0.0,90,0.00,CLR,,0.00,WeatherDisplay:10.37,2013-12-12 14:40:00,
2013-12-12 08:45:00,9.8,7.4,30.20,South,191,0.0,0.0,90,0.00,CLR,,0.00,WeatherDisplay:10.37,2013-12-12 14:45:00,
2013-12-12 08:50:00,10.0,7.6,30.20,SSW,193,2.0,5.0,90,0.00,CLR,,0.00,WeatherDisplay:10.37,2013-12-12 14:50:00,
2013-12-12 08:55:00,10.1,7.8,30.21,SSW,196,0.0,5.0,90,0.00,CLR,,0.00,WeatherDisplay:10.37,2013-12-12 14:55:00,
2013-12-12 09:00:00,10.3,8.0,30.21,SSW,196,0.0,0.0,90,0.00,CLR,,0.00,WeatherDisplay:10.37,2013-12-12 15:00:00,
2013-12-12 09:05:00,10.6,8.3,30.22,SSW,196,2.0,3.0,90,0.00,CLR,,0.00,WeatherDisplay:10.37,2013-12-12 15:05:00,
2013-12-12 09:10:00,10.8,8.4,30.22,South,185,0.0,2.0,90,0.00,CLR,,0.00,WeatherDisplay:10.37,2013-12-12 15:10:00,
2013-12-12 09:15:00,11.0,8.6,30.23,South,182,1.0,5.0,90,0.00,CLR,,0.00,WeatherDisplay:10.37,2013-12-12 15:15:00,
2013-12-12 09:20:00,11.2,8.8,30.23,South,189,0.0,3.0,90,0.00,CLR,,0.00,WeatherDisplay:10.37,2013-12-12 15:20:00,
2013-12-12 09:25:00,11.5,9.1,30.23,SSW,192,0.0,0.0,90,0.00,CLR,,0.00,WeatherDisplay:10.37,2013-12-12 15:25:00,
2013-12-12 09:30:00,11.7,9.4,30.23,SSW,192,0.0,0.0,90,0.00,CLR,,0.00,WeatherDisplay:10.37,2013-12-12 15:30:00,
2013-12-12 09:35:00,11.9,9.5,30.23,South,181,0.0,5.0,90,0.00,CLR,,0.00,WeatherDisplay:10.37,2013-12-12 15:35:00,
2013-12-12 09:40:00,12.0,9.7,30.22,SSE,153,0.0,0.0,90,0.00,CLR,,0.00,WeatherDisplay:10.37,2013-12-12 15:40:00,
2013-12-12 09:45:00,12.1,9.7,30.23,SSE,148,0.0,0.0,90,0.00,CLR,,0.00,WeatherDisplay:10.37,2013-12-12 15:45:00,
2013-12-12 09:50:00,12.2,9.8,30.23,SSE,148,0.0,0.0,90,0.00,CLR,,0.00,WeatherDisplay:10.37,2013-12-12 15:50:00,
2013-12-12 09:55:00,12.3,9.9,30.22,SSE,148,0.0,0.0,90,0.00,CLR,,0.00,WeatherDisplay:10.37,2013-12-12 15:55:00,
2013-12-12 10:00:00,12.2,9.9,30.23,SSE,148,0.0,0.0,90,0.00,CLR,,0.00,WeatherDisplay:10.37,2013-12-12 16:00:00,
2013-12-12 10:05:00,12.4,9.8,30.23,South,174,0.0,5.0,89,0.00,CLR,,0.00,WeatherDisplay:10.37,2013-12-12 16:05:00,
2013-12-12 10:10:00,12.5,9.9,30.23,SSW,202,0.0,0.0,89,0.00,CLR,,0.00,WeatherDisplay:10.37,2013-12-12 16:10:00,
2013-12-12 10:15:00,12.7,9.8,30.23,SSW,202,0.0,0.0,88,0.00,CLR,,0.00,WeatherDisplay:10.37,2013-12-12 16:15:00,
2013-12-12 10:20:00,12.9,10.0,30.23,SSW,202,0.0,0.0,88,0.00,CLR,,0.00,WeatherDisplay:10.37,2013-12-12 16:20:00,
2013-12-12 10:25:00,13.0,10.1,30.23,SSW,202,0.0,0.0,88,0.00,CLR,,0.00,WeatherDisplay:10.37,2013-12-12 16:25:00,
2013-12-12 10:30:00,13.2,10.3,30.23,SSW,202,0.0,0.0,88,0.00,CLR,,0.00,WeatherDisplay:10.37,2013-12-12 16:30:00,
2013-12-12 10:35:00,13.3,10.2,30.24,SSW,202,0.0,0.0,87,0.00,CLR,,0.00,WeatherDisplay:10.37,2013-12-12 16:35:00,
2013-12-12 10:40:00,13.6,10.4,30.23,SSW,202,0.0,0.0,87,0.00,CLR,,0.00,WeatherDisplay:10.37,2013-12-12 16:40:00,
2013-12-12 10:45:00,13.8,10.6,30.23,SSW,202,0.0,0.0,87,0.00,CLR,,0.00,WeatherDisplay:10.37,2013-12-12 16:45:00,
2013-12-12 10:55:00,14.1,10.6,30.23,SSW,202,0.0,0.0,86,0.00,CLR,,0.00,WeatherDisplay:10.37,2013-12-12 16:55:00,
2013-12-12 11:05:00,14.5,11.1,30.23,SSW,193,0.0,6.0,86,0.00,CLR,,0.00,WeatherDisplay:10.37,2013-12-12 17:05:00,
2013-12-12 11:10:00,14.8,11.4,30.23,SSE,164,0.0,0.0,86,0.00,CLR,,0.00,WeatherDisplay:10.37,2013-12-12 17:10:00,
2013-12-12 11:20:00,15.3,11.6,30.22,South,174,0.0,3.0,85,0.00,CLR,,0.00,WeatherDisplay:10.37,2013-12-12 17:20:00,
2013-12-12 11:30:00,15.9,12.1,30.22,SSW,206,0.0,0.0,85,0.00,CLR,,0.00,WeatherDisplay:10.37,2013-12-12 17:30:00,
2013-12-12 11:35:00,16.2,12.2,30.22,SSW,204,0.0,3.0,84,0.00,CLR,,0.00,WeatherDisplay:10.37,2013-12-12 17:35:00,
2013-12-12 11:40:00,16.3,12.3,30.22,South,184,0.0,0.0,84,0.00,CLR,,0.00,WeatherDisplay:10.37,2013-12-12 17:40:00,
2013-12-12 11:45:00,16.6,12.6,30.22,South,174,0.0,0.0,84,0.00,CLR,,0.00,WeatherDisplay:10.37,2013-12-12 17:45:00,
2013-12-12 11:50:00,16.8,12.6,30.21,South,174,0.0,0.0,83,0.00,CLR,,0.00,WeatherDisplay:10.37,2013-12-12 17:50:00,
2013-12-12 11:55:00,17.0,12.8,30.21,South,174,0.0,0.0,83,0.00,CLR,,0.00,WeatherDisplay:10.37,2013-12-12 17:55:00,
2013-12-12 12:00:00,17.2,12.9,30.20,South,174,0.0,0.0,83,0.00,CLR,,0.00,WeatherDisplay:10.37,2013-12-12 18:00:00,
2013-12-12 12:05:00,17.3,12.7,30.20,SE,146,0.0,8.0,82,0.00,CLR,,0.00,WeatherDisplay:10.37,2013-12-12 18:05:00,
2013-12-12 12:10:00,17.4,12.8,30.20,East,98,0.0,0.0,82,0.00,CLR,,0.00,WeatherDisplay:10.37,2013-12-12 18:10:00,
2013-12-12 12:15:00,17.6,13.0,30.20,ENE,78,0.0,0.0,82,0.00,CLR,,0.00,WeatherDisplay:10.37,2013-12-12 18:15:00,
2013-12-12 12:20:00,17.8,13.2,30.20,ENE,78,0.0,0.0,82,0.00,CLR,,0.00,WeatherDisplay:10.37,2013-12-12 18:20:00,
2013-12-12 12:25:00,18.0,13.4,30.19,ENE,78,0.0,0.0,82,0.00,CLR,,0.00,WeatherDisplay:10.37,2013-12-12 18:25:00,
2013-12-12 12:30:00,18.1,13.5,30.19,ENE,78,0.0,0.0,82,0.00,CLR,,0.00,WeatherDisplay:10.37,2013-12-12 18:30:00,
2013-12-12 12:35:00,18.1,13.3,30.19,ESE,103,0.0,5.0,81,0.00,CLR,,0.00,WeatherDisplay:10.37,2013-12-12 18:35:00,
2013-12-12 12:40:00,18.2,13.4,30.19,SSW,212,3.0,8.0,81,0.00,CLR,,0.00,WeatherDisplay:10.37,2013-12-12 18:40:00,
2013-12-12 12:45:00,18.4,13.5,30.19,SW,218,0.0,0.0,81,0.00,CLR,,0.00,WeatherDisplay:10.37,2013-12-12 18:45:00,
2013-12-12 12:50:00,18.4,13.6,30.18,SW,217,0.0,0.0,81,0.00,CLR,,0.00,WeatherDisplay:10.37,2013-12-12 18:50:00,
2013-12-12 12:55:00,18.5,13.7,30.18,SW,217,0.0,0.0,81,0.00,CLR,,0.00,WeatherDisplay:10.37,2013-12-12 18:55:00,
2013-12-12 13:00:00,18.6,13.8,30.18,South,189,0.0,3.0,81,0.00,CLR,,0.00,WeatherDisplay:10.37,2013-12-12 19:00:00,
2013-12-12 13:05:00,18.8,13.9,30.18,South,178,0.0,5.0,81,0.00,CLR,,0.00,WeatherDisplay:10.37,2013-12-12 19:05:00,
2013-12-12 13:10:00,19.0,14.1,30.17,SW,214,1.0,5.0,81,0.00,CLR,,0.00,WeatherDisplay:10.37,2013-12-12 19:10:00,
2013-12-12 13:15:00,19.2,14.3,30.17,SW,226,0.0,0.0,81,0.00,CLR,,0.00,WeatherDisplay:10.37,2013-12-12 19:15:00,
2013-12-12 13:20:00,19.2,14.3,30.17,SW,225,1.0,7.0,81,0.00,CLR,,0.00,WeatherDisplay:10.37,2013-12-12 19:20:00,
2013-12-12 13:25:00,19.4,14.5,30.17,South,188,0.0,0.0,81,0.00,CLR,,0.00,WeatherDisplay:10.37,2013-12-12 19:25:00,
2013-12-12 13:30:00,19.6,14.7,30.17,South,187,0.0,9.0,81,0.00,CLR,,0.00,WeatherDisplay:10.37,2013-12-12 19:30:00,
2013-12-12 13:35:00,19.8,14.6,30.17,SSW,207,0.0,5.0,80,0.00,CLR,,0.00,WeatherDisplay:10.37,2013-12-12 19:35:00,
2013-12-12 13:40:00,19.9,14.8,30.17,SW,216,0.0,6.0,80,0.00,CLR,,0.00,WeatherDisplay:10.37,2013-12-12 19:40:00,
2013-12-12 13:45:00,20.1,14.9,30.17,SW,225,0.0,0.0,80,0.00,CLR,,0.00,WeatherDisplay:10.37,2013-12-12 19:45:00,
2013-12-12 13:50:00,20.3,15.2,30.16,SSW,213,5.0,9.0,80,0.00,CLR,,0.00,WeatherDisplay:10.37,2013-12-12 19:50:00,
2013-12-12 13:55:00,20.6,15.4,30.16,SSW,207,0.0,8.0,80,0.00,CLR,,0.00,WeatherDisplay:10.37,2013-12-12 19:55:00,
2013-12-12 14:00:00,20.8,15.6,30.16,SSW,210,3.0,8.0,80,0.00,CLR,,0.00,WeatherDisplay:10.37,2013-12-12 20:00:00,
2013-12-12 14:05:00,21.0,15.8,30.15,SSW,206,1.0,8.0,80,0.00,BKN,,0.00,WeatherDisplay:10.37,2013-12-12 20:05:00,
2013-12-12 14:10:00,20.9,15.4,30.15,SW,218,1.0,9.0,79,0.00,BKN,,0.00,WeatherDisplay:10.37,2013-12-12 20:10:00,
2013-12-12 14:15:00,20.8,15.3,30.15,SW,214,0.0,5.0,79,0.00,BKN,,0.00,WeatherDisplay:10.37,2013-12-12 20:15:00,
2013-12-12 14:20:00,20.8,15.3,30.14,South,172,0.0,0.0,79,0.00,BKN,,0.00,WeatherDisplay:10.37,2013-12-12 20:20:00,
2013-12-12 14:25:00,20.7,15.2,30.15,South,172,0.0,0.0,79,0.00,BKN,,0.00,WeatherDisplay:10.37,2013-12-12 20:25:00,
2013-12-12 14:30:00,20.7,15.2,30.14,South,172,0.0,0.0,79,0.01,RA,,0.01,WeatherDisplay:10.37,2013-12-12 20:30:00,
2013-12-12 14:35:00,20.6,15.1,30.15,South,172,0.0,0.0,79,0.00,RA,,0.01,WeatherDisplay:10.37,2013-12-12 20:35:00,
2013-12-12 14:40:00,20.6,15.1,30.15,South,172,0.0,0.0,79,0.00,BKN,,0.01,WeatherDisplay:10.37,2013-12-12 20:40:00,
2013-12-12 14:45:00,20.6,15.1,30.15,South,172,0.0,0.0,79,0.00,BKN,,0.01,WeatherDisplay:10.37,2013-12-12 20:45:00,
2013-12-12 14:50:00,20.6,15.1,30.15,South,172,0.0,0.0,79,0.00,BKN,,0.01,WeatherDisplay:10.37,2013-12-12 20:50:00,
2013-12-12 14:55:00,20.6,15.1,30.15,South,172,0.0,0.0,79,0.00,BKN,,0.01,WeatherDisplay:10.37,2013-12-12 20:55:00,
2013-12-12 15:00:00,20.6,15.1,30.15,SSW,206,0.0,6.0,79,0.00,BKN,,0.01,WeatherDisplay:10.37,2013-12-12 21:00:00,
2013-12-12 15:05:00,20.6,15.1,30.15,SW,232,0.0,2.0,79,0.00,CLR,,0.01,WeatherDisplay:10.37,2013-12-12 21:05:00,
2013-12-12 15:10:00,20.6,15.4,30.15,SW,218,0.0,6.0,80,0.00,CLR,,0.01,WeatherDisplay:10.37,2013-12-12 21:10:00,
2013-12-12 15:15:00,20.6,15.4,30.15,SSW,207,0.0,6.0,80,0.00,CLR,,0.01,WeatherDisplay:10.37,2013-12-12 21:15:00,
2013-12-12 15:20:00,20.6,15.4,30.15,SW,217,0.0,7.0,80,0.00,CLR,,0.01,WeatherDisplay:10.37,2013-12-12 21:20:00,
2013-12-12 15:25:00,20.6,15.4,30.15,SW,222,0.0,0.0,80,0.00,CLR,,0.01,WeatherDisplay:10.37,2013-12-12 21:25:00,
2013-12-12 15:30:00,20.6,15.4,30.14,SW,222,0.0,0.0,80,0.00,CLR,,0.01,WeatherDisplay:10.37,2013-12-12 21:30:00,
2013-12-12 15:35:00,20.6,15.4,30.15,SW,222,0.0,0.0,80,0.00,CLR,,0.01,WeatherDisplay:10.37,2013-12-12 21:35:00,
2013-12-12 15:40:00,20.6,15.4,30.15,SW,222,0.0,0.0,80,0.00,CLR,,0.01,WeatherDisplay:10.37,2013-12-12 21:40:00,
2013-12-12 15:45:00,20.7,15.5,30.15,SW,222,0.0,0.0,80,0.00,CLR,,0.01,WeatherDisplay:10.37,2013-12-12 21:45:00,
2013-12-12 15:50:00,20.8,15.6,30.15,SW,222,0.0,0.0,80,0.00,CLR,,0.01,WeatherDisplay:10.37,2013-12-12 21:50:00,
2013-12-12 15:55:00,20.8,15.6,30.15,SW,222,0.0,0.0,80,0.00,CLR,,0.01,WeatherDisplay:10.37,2013-12-12 21:55:00,
2013-12-12 16:00:00,20.8,15.6,30.15,SW,222,0.0,0.0,80,0.00,CLR,,0.01,WeatherDisplay:10.37,2013-12-12 22:00:00,
2013-12-12 16:05:00,20.9,16.0,30.15,SW,222,0.0,0.0,81,0.00,CLR,,0.01,WeatherDisplay:10.37,2013-12-12 22:05:00,
2013-12-12 16:10:00,20.9,16.0,30.15,SW,222,0.0,0.0,81,0.00,CLR,,0.01,WeatherDisplay:10.37,2013-12-12 22:10:00,
2013-12-12 16:15:00,20.9,16.0,30.15,SW,222,0.0,0.0,81,0.00,OVC,,0.01,WeatherDisplay:10.37,2013-12-12 22:15:00,
2013-12-12 16:20:00,20.9,16.0,30.15,SW,222,0.0,0.0,81,0.00,OVC,,0.01,WeatherDisplay:10.37,2013-12-12 22:20:00,
2013-12-12 16:25:00,20.9,15.9,30.16,SW,222,0.0,0.0,81,0.00,OVC,,0.01,WeatherDisplay:10.37,2013-12-12 22:25:00,
2013-12-12 16:30:00,20.8,15.9,30.15,SW,222,0.0,0.0,81,0.00,OVC,,0.01,WeatherDisplay:10.37,2013-12-12 22:30:00,
2013-12-12 16:35:00,20.8,15.9,30.16,SSW,203,0.0,6.0,81,0.00,OVC,,0.01,WeatherDisplay:10.37,2013-12-12 22:35:00,
2013-12-12 16:40:00,20.8,16.2,30.16,South,182,0.0,0.0,82,0.00,OVC,,0.01,WeatherDisplay:10.37,2013-12-12 22:40:00,
2013-12-12 16:45:00,20.7,16.1,30.16,South,187,1.0,7.0,82,0.00,OVC,,0.01,WeatherDisplay:10.37,2013-12-12 22:45:00,
2013-12-12 16:50:00,20.6,16.0,30.15,SSW,205,3.0,7.0,82,0.00,OVC,,0.01,WeatherDisplay:10.37,2013-12-12 22:50:00,
2013-12-12 16:55:00,20.6,16.0,30.15,WSW,245,0.0,0.0,82,0.00,OVC,,0.01,WeatherDisplay:10.37,2013-12-12 22:55:00,
2013-12-12 17:00:00,20.6,16.0,30.15,West,265,0.0,0.0,82,0.00,OVC,,0.01,WeatherDisplay:10.37,2013-12-12 23:00:00,
2013-12-12 17:05:00,20.6,15.9,30.15,WSW,238,5.0,8.0,82,0.00,OVC,,0.01,WeatherDisplay:10.37,2013-12-12 23:05:00,
2013-12-12 17:10:00,20.5,15.9,30.15,SW,227,2.0,5.0,82,0.00,OVC,,0.01,WeatherDisplay:10.37,2013-12-12 23:10:00,
2013-12-12 17:15:00,20.5,15.9,30.14,SW,225,0.0,0.0,82,0.00,OVC,,0.01,WeatherDisplay:10.37,2013-12-12 23:15:00,
2013-12-12 17:20:00,20.5,15.8,30.14,SW,227,0.0,0.0,82,0.00,OVC,,0.01,WeatherDisplay:10.37,2013-12-12 23:20:00,
2013-12-12 17:25:00,20.5,15.9,30.14,SW,227,0.0,0.0,82,0.00,OVC,,0.01,WeatherDisplay:10.37,2013-12-12 23:25:00,
2013-12-12 17:30:00,20.5,16.1,30.14,SW,227,0.0,0.0,83,0.00,OVC,,0.01,WeatherDisplay:10.37,2013-12-12 23:30:00,
2013-12-12 17:35:00,20.5,16.1,30.13,SW,227,0.0,0.0,83,0.00,OVC,,0.01,WeatherDisplay:10.37,2013-12-12 23:35:00,
2013-12-12 17:40:00,20.4,16.1,30.13,SW,227,0.0,0.0,83,0.00,OVC,,0.01,WeatherDisplay:10.37,2013-12-12 23:40:00,
2013-12-12 17:45:00,20.4,16.1,30.12,SW,227,0.0,0.0,83,0.00,OVC,,0.01,WeatherDisplay:10.37,2013-12-12 23:45:00,
2013-12-12 17:50:00,20.5,16.1,30.12,SW,227,0.0,0.0,83,0.00,OVC,,0.01,WeatherDisplay:10.37,2013-12-12 23:50:00,
2013-12-12 17:55:00,20.5,16.1,30.11,SW,227,0.0,0.0,83,0.00,OVC,,0.01,WeatherDisplay:10.37,2013-12-12 23:55:00,
2013-12-12 18:00:00,20.5,16.4,30.11,SW,227,0.0,0.0,84,0.00,OVC,,0.01,WeatherDisplay:10.37,2013-12-13 00:00:00,
2013-12-12 18:05:00,20.4,16.4,30.11,SW,227,0.0,0.0,84,0.00,OVC,,0.01,WeatherDisplay:10.37,2013-12-13 00:05:00,
2013-12-12 18:10:00,20.4,16.4,30.11,SW,227,0.0,0.0,84,0.00,OVC,,0.01,WeatherDisplay:10.37,2013-12-13 00:10:00,
2013-12-12 18:15:00,20.5,16.4,30.12,SW,227,0.0,0.0,84,0.00,OVC,,0.01,WeatherDisplay:10.37,2013-12-13 00:15:00,
2013-12-12 18:20:00,20.4,16.4,30.12,SW,227,0.0,0.0,84,0.00,OVC,,0.01,WeatherDisplay:10.37,2013-12-13 00:20:00,
2013-12-12 18:25:00,20.3,16.2,30.12,SW,227,0.0,0.0,84,0.00,OVC,,0.01,WeatherDisplay:10.37,2013-12-13 00:25:00,
2013-12-12 18:30:00,20.3,16.2,30.12,SW,227,0.0,0.0,84,0.00,OVC,,0.01,WeatherDisplay:10.37,2013-12-13 00:30:00,
2013-12-12 18:35:00,20.1,16.1,30.12,SW,227,0.0,0.0,84,0.00,OVC,,0.01,WeatherDisplay:10.37,2013-12-13 00:35:00,
2013-12-12 18:40:00,20.1,16.0,30.12,SW,227,0.0,0.0,84,0.00,OVC,,0.01,WeatherDisplay:10.37,2013-12-13 00:40:00,
2013-12-12 18:45:00,20.0,15.9,30.12,SW,227,0.0,0.0,84,0.00,OVC,,0.01,WeatherDisplay:10.37,2013-12-13 00:45:00,
2013-12-12 18:50:00,19.9,15.8,30.13,SW,227,0.0,0.0,84,0.00,OVC,,0.01,WeatherDisplay:10.37,2013-12-13 00:50:00,
2013-12-12 18:55:00,19.8,15.7,30.13,SW,227,0.0,0.0,84,0.00,OVC,,0.01,WeatherDisplay:10.37,2013-12-13 00:55:00,
2013-12-12 19:00:00,19.8,15.7,30.12,SW,227,0.0,0.0,84,0.00,OVC,,0.01,WeatherDisplay:10.37,2013-12-13 01:00:00,
2013-12-12 19:05:00,19.8,16.0,30.12,SW,227,0.0,0.0,85,0.00,OVC,,0.01,WeatherDisplay:10.37,2013-12-13 01:05:00,
2013-12-12 19:10:00,19.8,16.0,30.12,SW,227,0.0,0.0,85,0.00,OVC,,0.01,WeatherDisplay:10.37,2013-12-13 01:10:00,
2013-12-12 19:15:00,19.8,16.0,30.12,SW,227,0.0,0.0,85,0.00,OVC,,0.01,WeatherDisplay:10.37,2013-12-13 01:15:00,
2013-12-12 19:20:00,19.8,16.0,30.11,SW,227,0.0,0.0,85,0.00,OVC,,0.01,WeatherDisplay:10.37,2013-12-13 01:20:00,
2013-12-12 19:25:00,19.8,16.3,30.11,SW,227,0.0,0.0,86,0.00,OVC,,0.01,WeatherDisplay:10.37,2013-12-13 01:25:00,
2013-12-12 19:30:00,19.8,16.3,30.11,SW,227,0.0,0.0,86,0.00,OVC,,0.01,WeatherDisplay:10.37,2013-12-13 01:30:00,
2013-12-12 19:35:00,19.8,16.3,30.10,SW,227,0.0,0.0,86,0.00,OVC,,0.01,WeatherDisplay:10.37,2013-12-13 01:35:00,
2013-12-12 19:40:00,19.6,16.1,30.10,SW,227,0.0,0.0,86,0.00,OVC,,0.01,WeatherDisplay:10.37,2013-12-13 01:40:00,
2013-12-12 19:45:00,19.5,16.0,30.10,SW,227,0.0,0.0,86,0.00,OVC,,0.01,WeatherDisplay:10.37,2013-12-13 01:45:00,
2013-12-12 19:50:00,19.6,16.1,30.10,SW,225,0.0,5.0,86,0.00,OVC,,0.01,WeatherDisplay:10.37,2013-12-13 01:50:00,
2013-12-12 19:55:00,19.6,16.3,30.09,South,182,2.0,5.0,87,0.00,OVC,,0.01,WeatherDisplay:10.37,2013-12-13 01:55:00,
2013-12-12 20:00:00,19.5,16.3,30.09,South,170,1.0,5.0,87,0.00,OVC,,0.01,WeatherDisplay:10.37,2013-12-13 02:00:00,
2013-12-12 20:05:00,19.5,16.3,30.09,SSE,163,0.0,5.0,87,0.00,OVC,,0.01,WeatherDisplay:10.37,2013-12-13 02:05:00,
2013-12-12 20:10:00,19.4,16.2,30.09,SSE,161,0.0,0.0,87,0.00,OVC,,0.01,WeatherDisplay:10.37,2013-12-13 02:10:00,
2013-12-12 20:15:00,19.5,16.2,30.09,SSE,160,0.0,0.0,87,0.00,SCT,,0.01,WeatherDisplay:10.37,2013-12-13 02:15:00,
2013-12-12 20:20:00,19.5,16.2,30.09,SSE,160,0.0,0.0,87,0.00,SCT,,0.01,WeatherDisplay:10.37,2013-12-13 02:20:00,
2013-12-12 20:25:00,19.5,16.2,30.09,SSE,160,0.0,0.0,87,0.00,SCT,,0.01,WeatherDisplay:10.37,2013-12-13 02:25:00,
2013-12-12 20:30:00,19.4,16.2,30.09,SSE,160,0.0,0.0,87,0.00,SCT,,0.01,WeatherDisplay:10.37,2013-12-13 02:30:00,
2013-12-12 20:35:00,19.4,16.1,30.08,SSE,160,0.0,0.0,87,0.00,SCT,,0.01,WeatherDisplay:10.37,2013-12-13 02:35:00,
2013-12-12 20:40:00,19.3,16.1,30.08,SSE,160,0.0,0.0,87,0.00,SCT,,0.01,WeatherDisplay:10.37,2013-12-13 02:40:00,
2013-12-12 20:45:00,19.2,16.0,30.08,SSE,160,0.0,0.0,87,0.00,SCT,,0.01,WeatherDisplay:10.37,2013-12-13 02:45:00,
2013-12-12 20:50:00,19.2,15.9,30.09,SSE,160,0.0,0.0,87,0.00,SCT,,0.01,WeatherDisplay:10.37,2013-12-13 02:50:00,
2013-12-12 20:55:00,19.0,15.8,30.09,SSE,160,0.0,0.0,87,0.00,SCT,,0.01,WeatherDisplay:10.37,2013-12-13 02:55:00,
2013-12-12 21:00:00,18.9,16.0,30.09,SSE,160,0.0,0.0,88,0.00,SCT,,0.01,WeatherDisplay:10.37,2013-12-13 03:00:00,
2013-12-12 21:05:00,18.8,15.8,30.09,SSE,160,0.0,0.0,88,0.00,SCT,,0.01,WeatherDisplay:10.37,2013-12-13 03:05:00,
2013-12-12 21:10:00,18.8,15.8,30.09,SSE,160,0.0,0.0,88,0.00,SCT,,0.01,WeatherDisplay:10.37,2013-12-13 03:10:00,
2013-12-12 21:15:00,18.7,15.7,30.09,SSE,160,0.0,0.0,88,0.00,SCT,,0.01,WeatherDisplay:10.37,2013-12-13 03:15:00,
2013-12-12 21:20:00,18.6,15.7,30.09,SSE,160,0.0,0.0,88,0.00,SCT,,0.01,WeatherDisplay:10.37,2013-12-13 03:20:00,
2013-12-12 21:25:00,18.7,15.7,30.09,SSE,160,0.0,0.0,88,0.00,SCT,,0.01,WeatherDisplay:10.37,2013-12-13 03:25:00,
2013-12-12 21:30:00,18.7,15.7,30.09,SSE,160,0.0,0.0,88,0.00,SCT,,0.01,WeatherDisplay:10.37,2013-12-13 03:30:00,
2013-12-12 21:35:00,18.8,15.9,30.09,SSE,160,0.0,0.0,88,0.00,SCT,,0.01,WeatherDisplay:10.37,2013-12-13 03:35:00,
2013-12-12 21:40:00,18.8,15.8,30.09,SSE,160,0.0,0.0,88,0.00,SCT,,0.01,WeatherDisplay:10.37,2013-12-13 03:40:00,
2013-12-12 21:45:00,18.8,15.8,30.09,SSE,160,0.0,0.0,88,0.00,SCT,,0.01,WeatherDisplay:10.37,2013-12-13 03:45:00,
2013-12-12 21:50:00,18.8,15.8,30.09,SSE,160,0.0,0.0,88,0.00,SCT,,0.01,WeatherDisplay:10.37,2013-12-13 03:50:00,
2013-12-12 22:00:00,18.6,15.9,30.09,SSE,160,0.0,0.0,89,0.00,SCT,,0.01,WeatherDisplay:10.37,2013-12-13 04:00:00,
2013-12-12 22:05:00,18.5,15.8,30.09,SSE,160,0.0,0.0,89,0.00,SCT,,0.01,WeatherDisplay:10.37,2013-12-13 04:05:00,
2013-12-12 22:10:00,18.4,15.7,30.09,SSE,160,0.0,0.0,89,0.00,SCT,,0.01,WeatherDisplay:10.37,2013-12-13 04:10:00,
2013-12-12 22:15:00,18.4,15.7,30.09,SSE,160,0.0,0.0,89,0.00,OVC,,0.01,WeatherDisplay:10.37,2013-12-13 04:15:00,
2013-12-12 22:20:00,18.5,16.0,30.09,SSE,160,0.0,0.0,90,0.00,OVC,,0.01,WeatherDisplay:10.37,2013-12-13 04:20:00,
2013-12-12 22:25:00,18.5,16.1,30.09,SSE,160,0.0,0.0,90,0.00,OVC,,0.01,WeatherDisplay:10.37,2013-12-13 04:25:00,
2013-12-12 22:30:00,18.4,16.0,30.09,SSE,160,0.0,0.0,90,0.00,OVC,,0.01,WeatherDisplay:10.37,2013-12-13 04:30:00,
2013-12-12 22:35:00,18.3,15.9,30.09,SSE,160,0.0,0.0,90,0.00,OVC,,0.01,WeatherDisplay:10.37,2013-12-13 04:35:00,
2013-12-12 22:40:00,18.3,15.9,30.09,SSE,160,0.0,0.0,90,0.00,OVC,,0.01,WeatherDisplay:10.37,2013-12-13 04:40:00,
2013-12-12 22:45:00,18.3,15.9,30.09,SSE,160,0.0,0.0,90,0.00,OVC,,0.01,WeatherDisplay:10.37,2013-12-13 04:45:00,
2013-12-12 22:50:00,18.4,15.9,30.09,SSE,160,0.0,0.0,90,0.00,OVC,,0.01,WeatherDisplay:10.37,2013-12-13 04:50:00,
2013-12-12 22:55:00,18.3,15.9,30.09,SSE,160,0.0,0.0,90,0.00,OVC,,0.01,WeatherDisplay:10.37,2013-12-13 04:55:00,
2013-12-12 23:00:00,18.3,15.9,30.09,SSE,160,0.0,0.0,90,0.00,OVC,,0.01,WeatherDisplay:10.37,2013-12-13 05:00:00,
2013-12-12 23:05:00,18.3,15.9,30.09,SSE,160,0.0,0.0,90,0.00,OVC,,0.01,WeatherDisplay:10.37,2013-12-13 05:05:00,
2013-12-12 23:10:00,18.4,15.9,30.08,SSE,160,0.0,0.0,90,0.00,OVC,,0.01,WeatherDisplay:10.37,2013-12-13 05:10:00,
2013-12-12 23:15:00,18.3,15.8,30.09,SSE,160,0.0,0.0,90,0.00,FEW,,0.01,WeatherDisplay:10.37,2013-12-13 05:15:00,
2013-12-12 23:20:00,18.3,15.8,30.09,SSE,160,0.0,0.0,90,0.00,FEW,,0.01,WeatherDisplay:10.37,2013-12-13 05:20:00,
2013-12-12 23:25:00,18.2,15.8,30.09,SSE,160,0.0,0.0,90,0.00,FEW,,0.01,WeatherDisplay:10.37,2013-12-13 05:25:00,
2013-12-12 23:30:00,18.1,15.7,30.09,SSE,160,0.0,0.0,90,0.00,FEW,,0.01,WeatherDisplay:10.37,2013-12-13 05:30:00,
2013-12-12 23:35:00,18.0,15.6,30.09,SSE,160,0.0,0.0,90,0.00,FEW,,0.01,WeatherDisplay:10.37,2013-12-13 05:35:00,
2013-12-12 23:40:00,17.9,15.5,30.09,SSE,160,0.0,0.0,90,0.00,FEW,,0.01,WeatherDisplay:10.37,2013-12-13 05:40:00,
2013-12-12 23:45:00,17.8,15.4,30.09,SSE,160,0.0,0.0,90,0.00,FEW,,0.01,WeatherDisplay:10.37,2013-12-13 05:45:00,
2013-12-12 23:50:00,17.8,15.3,30.10,SSE,160,0.0,0.0,90,0.00,FEW,,0.01,WeatherDisplay:10.37,2013-12-13 05:50:00,
2013-12-12 23:55:00,17.8,15.3,30.10,SSE,160,0.0,0.0,90,0.00,FEW,,0.01,WeatherDisplay:10.37,2013-12-13 05:55:00,